Burns Pinion Ridge Reserve, California Weather observations

Data are for 10 minute period ending at time listed.
 Day   Time   Solar   Ave.   Ave.  Ave.  Vector  Max.   Baro.   Total    
  of    of     Rad.   Air    Rel.  Wind   Wind   Wind  Press.  Precip.   
Year   Day            Temp.  Hum.  Speed  Dir.   Gust                    
2017   (PST)  Kw/m2    F      %     mph   deg.    mph    mb.     in.     
-------------------------------------------------------------------------
  18   14:10   0.37   50.0    34    8.8   204    17.4   874.1    0.00 
  18   14:20   0.39   49.8    34   10.5   210    22.8   874.1    0.00 
  18   14:30   0.36   48.8    35   10.9   208    20.8   874.1    0.00 
  18   14:40   0.31   49.2    35   10.0   202    17.9   874.0    0.00 
  18   14:50   0.18   48.0    37   11.4   214    17.2   874.1    0.00 
  18   15:00   0.14   47.4    39    9.7   221    18.0   874.2    0.00 
  18   15:10   0.13   46.9    40   10.3   221    16.7   874.1    0.00 
  18   15:20   0.17   46.9    40   11.5   216    18.9   874.0    0.00 
  18   15:30   0.17   47.3    40   10.3   216    18.0   873.9    0.00 
  18   15:40   0.18   47.8    40   10.3   215    17.8   873.9    0.00 
  18   15:50   0.17   48.3    40   10.5   205    16.4   874.0    0.00 
  18   16:00   0.08   47.8    41   11.8   209    20.4   874.1    0.00 
  18   16:10   0.06   47.0    43   12.3   214    19.6   874.3    0.00 
  18   16:20   0.04   46.6    44    8.4   207    19.2   874.4    0.00 
  18   16:30   0.04   46.2    46   11.9   214    18.6   874.5    0.00 
  18   16:40   0.03   46.1    46   10.3   210    18.9   874.6    0.00 
  18   16:50   0.01   46.0    47    9.3   211    15.4   874.6    0.00 
  18   17:00   0.01   45.7    48    8.9   210    17.7   874.8    0.00 
  18   17:10   0.00   45.5    48    6.5   210    11.4   875.0    0.00 
  18   17:20   0.00   45.3    49    6.4   200    12.1   875.2    0.00 
  18   17:30   0.00   45.0    51    6.1   186     9.6   875.3    0.00 
  18   17:40   0.00   44.9    52    5.4   185    10.6   875.4    0.00 
  18   17:50   0.00   44.9    54    6.2   180    11.2   875.5    0.00 
  18   18:00   0.00   44.9    56    6.4   183    10.6   875.6    0.00 
  18   18:10   0.00   44.7    58    6.6   184    11.8   875.6    0.00 
  18   18:20   0.00   44.5    58    6.7   185    11.8   875.7    0.00 
  18   18:30   0.00   44.3    59    7.3   175    10.9   875.5    0.00 
  18   18:40   0.00   44.2    60    7.5   187    13.3   875.6    0.00 
  18   18:50   0.00   44.0    61    6.9   196    11.7   875.6    0.00 
  18   19:00   0.00   43.8    62    7.0   195    10.3   875.6    0.00 
  18   19:10   0.00   43.7    62    6.5   187    10.7   875.5    0.00 
  18   19:20   0.00   43.7    62    6.0   192    11.0   875.5    0.00 
  18   19:30   0.00   43.7    63    5.9   208    10.5   875.6    0.00 
  18   19:40   0.00   43.6    64    5.6   182    10.7   875.6    0.00 
  18   19:50   0.00   43.6    64    6.1   209    10.3   875.9    0.00 
  18   20:00   0.00   43.2    67    5.0   193     8.7   875.8    0.00 
  18   20:10   0.00   43.1    67    6.5   177    12.6   875.7    0.00 
  18   20:20   0.00   42.7    66    3.8   131     8.9   875.8    0.00 
  18   20:30   0.00   41.4    79    2.9   138     4.7   875.7    0.00 
  18   20:40   0.00   40.9    82    4.8   133     9.1   875.3    0.01 
  18   20:50   0.00   41.4    78    4.6   165    11.5   875.3    0.00 
  18   21:00   0.00   41.0    71    7.8   207    16.8   875.0    0.00 
  18   21:10   0.00   40.6    68   10.0   202    21.5   874.8    0.00 
  18   21:20   0.00   40.5    67    9.1   212    20.2   874.6    0.00 
  18   21:30   0.00   40.8    66   13.7   213    21.9   874.5    0.00 
  18   21:40   0.00   41.1    64   11.7   214    19.4   874.5    0.00 
  18   21:50   0.00   41.2    63    8.8   208    20.0   874.4    0.00 
  18   22:00   0.00   41.3    62   11.4   217    22.6   874.5    0.00 
  18   22:10   0.00   41.3    61   11.0   219    18.6   874.5    0.00 
  18   22:20   0.00   41.3    61    8.8   221    15.9   874.4    0.00 
  18   22:30   0.00   40.9    63    5.6   208    14.8   874.3    0.00 
  18   22:40   0.00   40.6    64    6.0   203    10.7   874.3    0.00 
  18   22:50   0.00   40.3    67    5.5   184    10.1   874.3    0.00 
  18   23:00   0.00   40.0    69    8.9   209    16.5   874.1    0.00 
  18   23:10   0.00   39.9    71    8.5   200    15.7   874.0    0.00 
  18   23:20   0.00   40.1    72    9.2   215    16.6   873.7    0.00 
  18   23:30   0.00   40.3    73    8.3   207    21.9   873.5    0.00 
  18   23:40   0.00   40.6    73   12.4   206    20.0   873.5    0.00 
  18   23:50   0.00   40.9    73   12.6   213    19.2   873.3    0.00 
  19    0:00   0.00   41.3    72   11.9   211    21.9   873.1    0.00 
  19    0:10   0.00   41.7    71   10.4   213    18.3   873.0    0.00 
  19    0:20   0.00   41.8    70    9.1   202    17.0   872.7    0.00 
  19    0:30   0.00   42.3    69   11.6   210    21.3   872.6    0.00 
  19    0:40   0.00   42.5    69   10.8   196    23.2   872.3    0.00 
  19    0:50   0.00   42.1    70   10.5   191    21.3   872.2    0.00 
  19    1:00   0.00   42.2    71   10.6   201    18.8   872.0    0.00 
  19    1:10   0.00   42.5    71   14.5   213    30.8   871.8    0.00 
  19    1:20   0.00   42.7    71   19.1   212    32.2   871.6    0.00 
  19    1:30   0.00   42.4    72   16.1   210    28.2   871.6    0.00 
  19    1:40   0.00   42.3    73   15.9   216    27.9   871.7    0.00 
  19    1:50   0.00   42.3    73   14.1   214    22.9   871.9    0.00 
  19    2:00   0.00   42.2    73   11.3   218    20.2   871.9    0.00 
  19    2:10   0.00   42.6    73   14.6   214    28.9   872.0    0.00 
  19    2:20   0.00   42.2    74   11.6   218    25.9   871.9    0.00 
  19    2:30   0.00   42.0    74   13.8   212    24.3   871.8    0.00 
  19    2:40   0.00   41.4    75   13.3   215    19.6   871.6    0.00 
  19    2:50   0.00   41.1    77   11.3   216    21.5   871.5    0.00 
  19    3:00   0.00   41.1    78   12.8   216    25.4   871.5    0.00 
  19    3:10   0.00   41.8    77   10.8   222    23.6   871.6    0.00 
  19    3:20   0.00   42.4    76   10.6   228    21.3   871.8    0.00 
  19    3:30   0.00   42.7    75   12.0   230    25.4   871.7    0.00 
  19    3:40   0.00   42.4    74   12.4   232    28.9   871.6    0.00 
  19    3:50   0.00   42.1    72   14.9   224    30.4   871.5    0.00 
  19    4:00   0.00   41.6    71   12.5   231    24.0   871.5    0.00 
  19    4:10   0.00   41.0    70   12.8   237    23.7   871.4    0.00 
  19    4:20   0.00   40.5    70   11.4   233    31.6   871.3    0.00 
  19    4:30   0.00   39.7    72   14.2   221    30.1   870.8    0.00 
  19    4:40   0.00   39.2    74   15.3   220    30.7   870.8    0.00 
  19    4:50   0.00   38.6    77   15.0   225    28.8   870.9    0.00 
  19    5:00   0.00   38.2    82   13.8   220    24.6   871.0    0.00 
  19    5:10   0.00   38.0    83   11.5   220    22.8   871.0    0.00 
  19    5:20   0.00   38.2    82   13.0   214    20.7   870.8    0.00 
  19    5:30   0.00   38.1    82   15.2   217    26.5   870.5    0.00 
  19    5:40   0.00   38.6    80   14.1   216    24.3   870.5    0.00 
  19    5:50   0.00   38.8    80   11.2   214    21.9   870.7    0.00 
  19    6:00   0.00   39.3    80   15.7   213    25.5   870.8    0.00 
  19    6:10   0.00   39.3    81   14.8   213    24.5   871.1    0.01 
  19    6:20   0.00   38.6    87   11.8   216    19.3   871.0    0.01 
  19    6:30   0.00   38.5    88    8.2   237    16.2   871.1    0.00 
  19    6:40   0.00   38.4    90    7.4   244    14.7   870.9    0.00 
  19    6:50   0.00   38.4    91    7.5   245    14.1   870.9    0.01 
  19    7:00   0.00   38.9    90    8.9   243    15.1   870.6    0.02 
  19    7:10   0.01   39.2    89    8.7   236    15.3   870.7    0.02 
  19    7:20   0.01   39.2    90    8.5   224    17.5   871.1    0.04 
  19    7:30   0.01   38.8    92    9.0   229    18.1   871.0    0.05 
  19    7:40   0.00   38.7    93    9.1   213    16.4   871.2    0.05 
  19    7:50   0.00   38.6    94    9.9   211    16.3   871.1    0.05 
  19    8:00   0.02   38.4    94    8.2   218    20.5   871.1    0.03 
  19    8:10   0.09   38.5    92   10.4   215    17.8   870.7    0.02 
  19    8:20   0.04   38.6    93    9.6   214    17.4   870.8    0.01 
  19    8:30   0.02   38.4    95    7.1   202    16.8   870.7    0.02 
  19    8:40   0.08   38.6    96    6.9   204    17.2   870.7    0.02 
  19    8:50   0.17   38.9    96    7.7   197    16.2   870.6    0.00 
  19    9:00   0.10   38.5    96    8.8   206    18.3   870.5    0.02 
  19    9:10   0.10   38.6    96   10.4   214    18.1   870.3    0.01 
  19    9:20   0.09   38.8    96   13.1   217    22.9   870.3    0.01 
  19    9:30   0.09   39.0    96   11.2   215    17.7   870.5    0.01 
  19    9:40   0.23   39.5    96    7.8   219    14.5   870.7    0.01 
  19    9:50   0.29   39.7    96    9.9   212    15.0   870.8    0.00 
  19   10:00   0.16   39.3    96   10.1   215    19.9   870.9    0.00 
  19   10:10   0.15   38.8    96    9.6   217    16.2   870.9    0.00 
  19   10:20   0.20   38.7    97   15.5   214    25.5   870.9    0.00 
  19   10:30   0.20   38.7    97   12.3   215    24.0   870.9    0.00 
  19   10:40   0.21   38.9    97   12.7   218    22.4   870.9    0.00 
  19   10:50   0.25   39.2    97   12.4   222    23.8   871.0    0.00 
  19   11:00   0.28   39.2    97   10.9   227    21.0   870.8    0.00 
  19   11:10   0.28   39.5    97    7.7   223    17.8   870.5    0.00 
  19   11:20   0.27   39.8    97    6.9   222    21.2   870.5    0.00 
  19   11:30   0.42   41.1    96    5.7   236    15.2   870.3    0.00 
  19   11:40   0.36   41.8    93    4.5   250    11.2   870.1    0.00 
  19   11:50   0.55   43.0    88    6.0   230    12.1   869.8    0.00 
  19   12:00   0.51   43.0    85    8.0   227    16.3   869.7    0.00 
  19   12:10   0.62   43.9    81    7.5   235    17.5   869.5    0.00 
  19   12:20   0.63   43.8    76   11.6   216    20.5   869.5    0.00 
  19   12:30   0.61   44.2    73    9.5   216    17.5   869.3    0.00 
  19   12:40   0.60   45.0    69    9.8   214    18.3   869.2    0.00 
  19   12:50   0.60   45.6    64   10.5   220    19.2   869.2    0.00 
  19   13:00   0.59   45.9    62    9.7   215    18.9   869.1    0.00 
  19   13:10   0.58   46.5    59    8.1   206    16.7   869.0    0.00 
  19   13:20   0.57   46.9    58    8.4   210    14.5   868.7    0.00 
  19   13:30   0.55   46.7    56    8.5   213    19.3   868.7    0.00 
  19   13:40   0.54   48.0    53    8.1   197    24.3   868.7    0.00 
  19   13:50   0.52   47.4    53    8.8   219    15.4   868.7    0.00 
  19   14:00   0.50   48.6    50    7.3   208    16.8   868.8    0.00 

Return to Burns Pinion Ridge Reserve graphs page.


Western Regional Climate Center,wrcc@dri.edu